createdAt,value
2022-10-18T00:00:15.153Z,101494.09
2022-10-18T00:02:43.193Z,101491.09
2022-10-18T00:05:11.277Z,101494.72
2022-10-18T00:07:39.217Z,101491.19
2022-10-18T00:10:08.328Z,101492.13
2022-10-18T00:12:36.471Z,101493.41
2022-10-18T00:15:05.269Z,101493.63
2022-10-18T00:17:35.120Z,101490.41
2022-10-18T00:20:03.157Z,101493.53
2022-10-18T00:22:31.311Z,101489.34
2022-10-18T00:24:59.408Z,101484.97
2022-10-18T00:27:27.377Z,101491.50
2022-10-18T00:29:55.345Z,101477.41
2022-10-18T00:32:23.312Z,101480.16
2022-10-18T00:34:52.646Z,101474.22
2022-10-18T00:37:20.591Z,101475.94
2022-10-18T00:39:48.667Z,101471.41
2022-10-18T00:42:17.294Z,101475.16
2022-10-18T00:45:21.856Z,101471.75
2022-10-18T00:47:53.113Z,101461.50
2022-10-18T00:50:22.807Z,101463.94
2022-10-18T00:52:53.282Z,101467.56
2022-10-18T00:55:21.282Z,101459.03
2022-10-18T00:57:49.348Z,101458.84
2022-10-18T01:00:17.326Z,101454.22
2022-10-18T01:02:45.956Z,101457.03
2022-10-18T01:05:14.426Z,101459.47
2022-10-18T01:07:58.476Z,101456.59
2022-10-18T01:10:29.003Z,101452.88
2022-10-18T01:13:04.491Z,101463.53
2022-10-18T01:15:33.249Z,101442.59
2022-10-18T01:18:08.178Z,101451.16
2022-10-18T01:21:06.047Z,101447.63
2022-10-18T01:23:43.087Z,101442.41
2022-10-18T01:26:20.212Z,101445.06
2022-10-18T01:28:54.650Z,101440.03
2022-10-18T01:31:24.024Z,101442.84
2022-10-18T01:33:53.328Z,101426.81
2022-10-18T01:36:23.178Z,101443.03
2022-10-18T01:38:52.358Z,101425.97
2022-10-18T01:41:20.406Z,101436.44
2022-10-18T01:43:49.113Z,101433.00
2022-10-18T01:46:19.125Z,101434.16
2022-10-18T01:48:48.836Z,101435.56
2022-10-18T01:51:16.837Z,101444.31
2022-10-18T01:53:44.765Z,101442.78
2022-10-18T01:56:18.959Z,101437.69
2022-10-18T01:58:51.108Z,101438.84
2022-10-18T02:01:21.657Z,101435.44
2022-10-18T02:03:50.959Z,101430.31
2022-10-18T02:06:20.979Z,101426.75
2022-10-18T02:08:51.095Z,101406.06
2022-10-18T02:11:19.103Z,101426.22
2022-10-18T02:13:48.501Z,101399.84
2022-10-18T02:16:18.214Z,101431.19
2022-10-18T02:18:47.920Z,101422.47
2022-10-18T02:21:18.588Z,101425.88
2022-10-18T02:23:46.624Z,101431.19
2022-10-18T02:26:14.804Z,101421.50
2022-10-18T02:28:42.775Z,101422.47
2022-10-18T02:31:13.757Z,101428.00
2022-10-18T02:33:45.312Z,101421.91
2022-10-18T02:36:14.738Z,101423.63
2022-10-18T02:38:44.133Z,101423.09
2022-10-18T02:41:12.113Z,101414.34
2022-10-18T02:43:40.082Z,101420.06
2022-10-18T02:46:08.330Z,101420.19
2022-10-18T02:48:36.262Z,101426.66
2022-10-18T02:51:04.219Z,101436.44
2022-10-18T02:53:32.202Z,101421.41
2022-10-18T02:56:01.533Z,101424.09
2022-10-18T02:58:29.466Z,101431.13
2022-10-18T03:00:57.403Z,101427.50
2022-10-18T03:03:25.411Z,101417.81
2022-10-18T03:05:53.590Z,101425.88
2022-10-18T03:08:22.803Z,101429.41
2022-10-18T03:10:50.790Z,101428.47
2022-10-18T03:13:20.228Z,101432.63
2022-10-18T03:15:48.331Z,101428.03
2022-10-18T03:18:16.286Z,101426.03
2022-10-18T03:20:44.246Z,101424.56
2022-10-18T03:23:12.207Z,101428.09
2022-10-18T03:25:42.845Z,101417.16
2022-10-18T03:28:13.703Z,101425.00
2022-10-18T03:30:43.007Z,101430.25
2022-10-18T03:33:10.965Z,101429.28
2022-10-18T03:35:38.951Z,101426.72
2022-10-18T03:38:06.916Z,101421.44
2022-10-18T03:40:34.862Z,101431.13
2022-10-18T03:43:02.859Z,101432.09
2022-10-18T03:45:31.608Z,101427.19
2022-10-18T03:48:01.155Z,101439.00
2022-10-18T03:50:29.125Z,101425.63
2022-10-18T03:52:57.039Z,101436.28
2022-10-18T03:55:24.953Z,101433.19
2022-10-18T03:57:52.902Z,101426.66
2022-10-18T04:00:20.923Z,101423.44
2022-10-18T04:02:51.957Z,101428.53
2022-10-18T04:05:26.975Z,101432.13
2022-10-18T04:07:54.930Z,101427.19
2022-10-18T04:10:22.897Z,101425.88
2022-10-18T04:12:50.867Z,101423.97
2022-10-18T04:15:19.133Z,101416.94
2022-10-18T04:17:47.136Z,101413.75
2022-10-18T04:20:15.100Z,101422.09
2022-10-18T04:22:44.505Z,101418.66
2022-10-18T04:25:12.475Z,101426.63
2022-10-18T04:27:40.420Z,101428.84
2022-10-18T04:30:09.307Z,101420.75
2022-10-18T04:32:37.269Z,101415.63
2022-10-18T04:35:05.583Z,101410.41
2022-10-18T04:37:34.141Z,101401.00
2022-10-18T04:40:03.877Z,101416.50
2022-10-18T04:42:31.845Z,101413.06
2022-10-18T04:44:59.871Z,101420.28
2022-10-18T04:47:27.887Z,101423.06
2022-10-18T04:49:55.859Z,101417.53
2022-10-18T04:52:23.825Z,101420.97
2022-10-18T04:54:51.854Z,101427.78
2022-10-18T04:57:21.201Z,101430.25
2022-10-18T04:59:49.277Z,101427.09
2022-10-18T05:02:17.406Z,101417.81
2022-10-18T05:04:45.411Z,101437.03
2022-10-18T05:07:13.387Z,101436.03
2022-10-18T05:09:41.354Z,101436.66
2022-10-18T05:12:09.330Z,101439.78
2022-10-18T05:14:38.626Z,101437.25
2022-10-18T05:17:06.596Z,101432.59
2022-10-18T05:19:34.562Z,101435.88
2022-10-18T05:22:02.535Z,101440.25
2022-10-18T05:24:30.483Z,101443.28
2022-10-18T05:26:58.612Z,101441.56
2022-10-18T05:31:57.003Z,101437.25
2022-10-18T05:34:27.359Z,101442.06
2022-10-18T05:36:55.453Z,101438.09
2022-10-18T05:39:23.615Z,101432.63
2022-10-18T05:41:51.678Z,101433.38
2022-10-18T05:44:19.584Z,101434.13
2022-10-18T05:46:47.555Z,101395.41
2022-10-18T05:49:17.063Z,101426.59
2022-10-18T05:51:45.030Z,101426.09
2022-10-18T05:54:13.101Z,101420.59
2022-10-18T05:56:41.225Z,101429.97
2022-10-18T05:59:12.301Z,101429.50
2022-10-18T06:01:43.386Z,101432.91
2022-10-18T06:04:11.446Z,101426.31
2022-10-18T06:06:40.826Z,101425.56
2022-10-18T06:09:08.947Z,101423.13
2022-10-18T06:11:37.187Z,101429.00
2022-10-18T06:14:05.272Z,101431.72
2022-10-18T06:16:33.300Z,101425.84
2022-10-18T06:19:01.338Z,101420.22
2022-10-18T06:21:29.374Z,101427.22
2022-10-18T06:23:59.573Z,101428.94
2022-10-18T06:26:28.189Z,101425.47
2022-10-18T06:28:56.223Z,101422.13
2022-10-18T06:31:24.330Z,101427.28
2022-10-18T06:33:52.262Z,101427.47
2022-10-18T06:36:22.115Z,101396.50
2022-10-18T06:38:50.070Z,101424.22
2022-10-18T06:41:19.672Z,101416.19
2022-10-18T06:43:49.885Z,101421.47
2022-10-18T06:46:17.873Z,101420.75
2022-10-18T06:48:45.917Z,101395.13
2022-10-18T06:51:15.295Z,101420.63
2022-10-18T06:53:53.425Z,101414.41
2022-10-18T06:56:32.578Z,101404.53
2022-10-18T06:59:00.711Z,101418.97
2022-10-18T07:01:29.198Z,101420.25
2022-10-18T07:03:57.277Z,101416.28
2022-10-18T07:06:25.283Z,101420.63
2022-10-18T07:08:54.253Z,101425.75
2022-10-18T07:11:24.229Z,101414.53
2022-10-18T07:13:54.151Z,101416.88
2022-10-18T07:16:22.256Z,101412.03
2022-10-18T07:18:51.158Z,101420.69
2022-10-18T07:21:20.268Z,101409.69
2022-10-18T07:23:48.318Z,101418.63
2022-10-18T07:26:17.400Z,101405.41
2022-10-18T07:28:46.173Z,101408.22
2022-10-18T07:31:15.577Z,101409.00
2022-10-18T07:33:44.074Z,101402.09
2022-10-18T07:36:12.448Z,101401.59
2022-10-18T07:38:40.811Z,101394.88
2022-10-18T07:41:09.021Z,101394.66
2022-10-18T07:43:37.161Z,101395.34
2022-10-18T07:46:05.902Z,101392.50
2022-10-18T07:48:35.265Z,101387.31
2022-10-18T07:51:03.321Z,101379.75
2022-10-18T07:53:31.349Z,101385.16
2022-10-18T07:56:01.489Z,101376.50
2022-10-18T07:58:32.319Z,101375.28
2022-10-18T08:01:03.588Z,101373.38
2022-10-18T08:03:31.588Z,101376.16
2022-10-18T08:06:00.926Z,101375.03
2022-10-18T08:08:28.936Z,101374.28
2022-10-18T08:10:56.979Z,101377.53
2022-10-18T08:13:24.942Z,101373.38
2022-10-18T08:15:52.932Z,101370.00
2022-10-18T08:18:20.885Z,101377.81
2022-10-18T08:20:48.867Z,101368.00
2022-10-18T08:23:18.255Z,101370.28
2022-10-18T08:25:46.219Z,101371.47
2022-10-18T08:28:14.615Z,101360.00
2022-10-18T08:30:42.596Z,101350.88
2022-10-18T08:33:10.658Z,101348.16
2022-10-18T08:35:38.614Z,101352.69
2022-10-18T08:38:13.880Z,101344.56
2022-10-18T08:40:45.475Z,101342.69
2022-10-18T08:43:20.732Z,101346.75
2022-10-18T08:45:49.638Z,101335.53
2022-10-18T08:48:21.943Z,101334.50
2022-10-18T08:50:50.113Z,101334.09
2022-10-18T08:53:20.509Z,101330.28
2022-10-18T08:55:52.661Z,101316.81
2022-10-18T08:58:21.872Z,101309.00
2022-10-18T09:00:55.479Z,101315.81
2022-10-18T09:03:30.829Z,101312.09
2022-10-18T09:06:03.723Z,101312.28
2022-10-18T09:08:41.913Z,101316.56
2022-10-18T09:11:19.968Z,101314.38
2022-10-18T09:14:03.663Z,101309.75
2022-10-18T09:16:35.519Z,101301.41
2022-10-18T09:19:07.690Z,101298.00
2022-10-18T09:21:41.350Z,101303.47
2022-10-18T09:24:13.150Z,101293.34
2022-10-18T09:26:44.604Z,101284.09
2022-10-18T09:29:24.352Z,101281.38
2022-10-18T09:31:54.017Z,101280.28
2022-10-18T09:34:26.640Z,101285.34
2022-10-18T09:36:54.615Z,101271.22
2022-10-18T09:39:24.622Z,101251.88
2022-10-18T09:41:55.357Z,101258.50
2022-10-18T09:44:24.453Z,101267.47
2022-10-18T09:46:54.674Z,101258.28
2022-10-18T09:49:24.595Z,101239.94
2022-10-18T09:51:52.952Z,101236.88
2022-10-18T09:54:23.390Z,101229.78
2022-10-18T09:56:53.690Z,101242.22
2022-10-18T09:59:40.604Z,101227.38
2022-10-18T10:02:10.571Z,101231.22
2022-10-18T10:04:38.627Z,101228.06
2022-10-18T10:07:08.665Z,101226.72
2022-10-18T10:09:38.660Z,101220.00
2022-10-18T10:12:31.075Z,101214.34
2022-10-18T10:15:08.986Z,101209.91
2022-10-18T10:17:37.208Z,101200.25
2022-10-18T10:20:06.379Z,101198.16
2022-10-18T10:22:36.449Z,101188.00
2022-10-18T10:25:04.722Z,101182.09
2022-10-18T10:27:35.133Z,101174.47
2022-10-18T10:30:06.978Z,101172.47
2022-10-18T10:32:46.432Z,101165.75
2022-10-18T10:35:33.801Z,101161.50
2022-10-18T10:38:23.839Z,101164.09
2022-10-18T10:40:51.788Z,101154.63
2022-10-18T10:43:39.284Z,101152.31
2022-10-18T10:46:08.863Z,101142.63
2022-10-18T10:48:42.590Z,101113.38
2022-10-18T10:51:11.372Z,101133.25
2022-10-18T10:53:45.100Z,101133.56
2022-10-18T10:56:27.457Z,101130.50
2022-10-18T10:58:57.242Z,101126.34
2022-10-18T11:01:32.685Z,101128.09
2022-10-18T11:04:02.135Z,101120.16
2022-10-18T11:06:46.281Z,101114.75
2022-10-18T11:09:24.371Z,101110.63
2022-10-18T11:11:58.071Z,101106.00
2022-10-18T11:14:28.151Z,101101.59
2022-10-18T11:17:02.065Z,101092.72
2022-10-18T11:19:35.924Z,101095.63
2022-10-18T11:22:04.161Z,101096.75
2022-10-18T11:24:32.373Z,101093.19
2022-10-18T11:27:01.892Z,101071.22
2022-10-18T11:29:40.927Z,101069.94
2022-10-18T11:32:13.029Z,101085.94
2022-10-18T11:34:49.098Z,101077.66
2022-10-18T11:37:46.190Z,101062.34
2022-10-18T11:40:26.474Z,101068.44
2022-10-18T11:42:57.372Z,101048.19
2022-10-18T11:48:06.755Z,101043.91
2022-10-18T11:50:36.314Z,101046.22
2022-10-18T11:53:13.421Z,101019.03
2022-10-18T11:55:49.854Z,101027.00
2022-10-18T11:58:39.533Z,101014.03
2022-10-18T12:01:17.678Z,101014.31
2022-10-18T12:03:52.041Z,101000.47
2022-10-18T12:06:22.270Z,101007.69
2022-10-18T12:08:51.283Z,100978.06
2022-10-18T12:11:21.012Z,100985.97
2022-10-18T12:13:50.266Z,100985.09
2022-10-18T12:16:33.451Z,100981.69
2022-10-18T12:19:09.704Z,100973.81
2022-10-18T12:21:39.497Z,100968.41
2022-10-18T12:24:08.677Z,100976.94
2022-10-18T12:26:36.663Z,100945.97
2022-10-18T12:29:09.963Z,100964.03
2022-10-18T12:31:41.705Z,100966.31
2022-10-18T12:34:26.280Z,100948.50
2022-10-18T12:37:31.253Z,100927.13
2022-10-18T12:40:20.301Z,100940.97
2022-10-18T12:42:49.256Z,100946.66
2022-10-18T12:45:35.546Z,100942.22
2022-10-18T12:48:06.731Z,100932.41
2022-10-18T12:50:36.400Z,100921.09
2022-10-18T12:53:19.069Z,100933.06
2022-10-18T12:55:47.696Z,100923.59
2022-10-18T12:58:31.904Z,100921.72
2022-10-18T13:01:09.603Z,100922.38
2022-10-18T13:04:02.849Z,100923.81
2022-10-18T13:07:03.782Z,100924.22
2022-10-18T13:09:32.089Z,100917.09
2022-10-18T13:12:02.151Z,100906.59
2022-10-18T13:14:48.334Z,100912.03
2022-10-18T13:17:31.114Z,100892.75
2022-10-18T13:20:26.721Z,100904.31
2022-10-18T13:23:01.874Z,100900.09
2022-10-18T13:25:32.498Z,100898.84
2022-10-18T13:28:03.583Z,100894.41
2022-10-18T13:30:34.276Z,100891.91
2022-10-18T13:33:10.823Z,100882.66
2022-10-18T13:35:51.895Z,100880.19
2022-10-18T13:38:48.542Z,100876.41
2022-10-18T13:41:18.163Z,100870.50
2022-10-18T13:43:56.326Z,100879.72
2022-10-18T13:46:24.791Z,100873.03
2022-10-18T13:48:52.929Z,100872.19
2022-10-18T13:51:50.018Z,100867.97
2022-10-18T13:54:39.741Z,100858.34
2022-10-18T13:57:16.321Z,100845.78
2022-10-18T14:00:03.128Z,100856.66
2022-10-18T14:02:51.746Z,100847.22
2022-10-18T14:05:29.659Z,100850.78
2022-10-18T14:08:01.415Z,100848.88
2022-10-18T14:10:50.232Z,100843.63
2022-10-18T14:13:24.240Z,100842.78
2022-10-18T14:15:53.192Z,100839.66
2022-10-18T14:18:23.793Z,100833.94
2022-10-18T14:21:12.238Z,100834.56
2022-10-18T14:23:43.672Z,100830.16
2022-10-18T14:26:15.191Z,100830.56
2022-10-18T14:28:59.146Z,100822.59
2022-10-18T14:31:27.746Z,100820.88
2022-10-18T14:33:57.881Z,100817.13
2022-10-18T14:36:27.356Z,100815.63
2022-10-18T14:38:57.289Z,100818.75
2022-10-18T14:41:25.976Z,100803.19
2022-10-18T14:43:55.456Z,100802.53
2022-10-18T14:46:28.053Z,100796.41
2022-10-18T14:48:59.810Z,100799.16
2022-10-18T14:51:28.479Z,100791.94
2022-10-18T14:53:58.718Z,100795.63
2022-10-18T14:56:29.031Z,100786.19
2022-10-18T14:58:57.998Z,100763.53
2022-10-18T15:01:27.655Z,100789.53
2022-10-18T15:03:58.409Z,100777.94
2022-10-18T15:06:27.172Z,100784.81
2022-10-18T15:08:58.732Z,100778.25
2022-10-18T15:11:27.514Z,100781.28
2022-10-18T15:13:56.945Z,100775.88
2022-10-18T15:16:27.033Z,100772.97
2022-10-18T15:19:03.371Z,100788.00
2022-10-18T15:21:31.915Z,100779.66
2022-10-18T15:24:23.073Z,100780.69
2022-10-18T15:26:51.710Z,100778.41
2022-10-18T15:29:21.000Z,100765.56
2022-10-18T15:31:49.977Z,100769.41
2022-10-18T15:34:21.242Z,100772.50
2022-10-18T15:36:49.919Z,100758.72
2022-10-18T15:39:19.356Z,100776.47
2022-10-18T15:41:50.830Z,100775.28
2022-10-18T15:44:24.488Z,100776.63
2022-10-18T15:47:11.601Z,100767.63
2022-10-18T15:49:55.261Z,100771.28
2022-10-18T15:52:38.288Z,100765.47
2022-10-18T15:55:47.337Z,100765.06
2022-10-18T15:58:20.411Z,100770.16
2022-10-18T16:00:48.495Z,100769.91
2022-10-18T16:03:16.648Z,100765.56
2022-10-18T16:05:44.835Z,100761.34
2022-10-18T16:08:22.710Z,100769.47
2022-10-18T16:10:50.709Z,100778.06
2022-10-18T16:13:20.073Z,100780.94
2022-10-18T16:15:48.086Z,100767.13
2022-10-18T16:18:17.598Z,100778.44
2022-10-18T16:20:45.647Z,100784.16
2022-10-18T16:23:18.565Z,100782.13
2022-10-18T16:25:46.667Z,100782.31
2022-10-18T16:28:15.885Z,100788.53
2022-10-18T16:30:46.338Z,100781.25
2022-10-18T16:33:17.907Z,100777.06
2022-10-18T16:35:49.500Z,100783.78
2022-10-18T16:38:32.467Z,100767.56
2022-10-18T16:41:02.227Z,100775.31
2022-10-18T16:43:30.240Z,100782.06
2022-10-18T16:45:59.799Z,100777.31
2022-10-18T16:48:27.770Z,100784.22
2022-10-18T16:50:56.749Z,100769.88
2022-10-18T16:53:25.168Z,100774.53
2022-10-18T16:55:54.562Z,100783.28
2022-10-18T17:00:51.705Z,100778.03
2022-10-18T17:03:21.156Z,100772.94
2022-10-18T17:05:49.162Z,100780.47
2022-10-18T17:08:19.927Z,100773.72
2022-10-18T17:10:48.432Z,100781.44
2022-10-18T17:13:16.551Z,100764.56
2022-10-18T17:15:44.575Z,100747.84
2022-10-18T17:18:14.111Z,100751.00
2022-10-18T17:20:43.545Z,100764.50
2022-10-18T17:23:11.619Z,100767.53
2022-10-18T17:25:47.235Z,100766.47
2022-10-18T17:28:25.908Z,100760.03
2022-10-18T17:30:53.926Z,100757.00
2022-10-18T17:33:21.884Z,100753.63
2022-10-18T17:35:51.261Z,100749.69
2022-10-18T17:38:19.298Z,100749.50
2022-10-18T17:40:47.460Z,100752.47
2022-10-18T17:43:15.522Z,100741.22
2022-10-18T17:45:48.294Z,100741.66
2022-10-18T17:48:16.322Z,100744.84
2022-10-18T17:50:44.372Z,100742.63
2022-10-18T17:53:14.067Z,100745.47
2022-10-18T17:55:42.283Z,100734.50
2022-10-18T17:58:10.270Z,100737.47
2022-10-18T18:00:38.299Z,100733.44
2022-10-18T18:03:06.369Z,100728.69
2022-10-18T18:05:35.028Z,100736.06
2022-10-18T18:08:04.154Z,100723.06
2022-10-18T18:10:34.784Z,100727.94
2022-10-18T18:13:02.816Z,100725.84
2022-10-18T18:15:30.933Z,100721.75
2022-10-18T18:17:59.023Z,100718.81
2022-10-18T18:20:27.188Z,100716.31
2022-10-18T18:22:55.169Z,100712.22
2022-10-18T18:25:23.231Z,100716.22
2022-10-18T18:27:52.620Z,100714.84
2022-10-18T18:30:21.879Z,100706.25
2022-10-18T18:32:49.919Z,100705.03
2022-10-18T18:35:17.993Z,100705.63
2022-10-18T18:37:46.064Z,100711.31
2022-10-18T18:40:14.066Z,100705.53
2022-10-18T18:42:42.108Z,100696.13
2022-10-18T18:45:11.583Z,100703.47
2022-10-18T18:47:40.093Z,100689.19
2022-10-18T18:50:09.177Z,100656.56
2022-10-18T18:52:37.157Z,100698.72
2022-10-18T18:55:05.636Z,100688.28
2022-10-18T18:57:33.916Z,100676.75
2022-10-18T19:00:02.177Z,100680.72
2022-10-18T19:02:31.495Z,100690.16
2022-10-18T19:04:59.531Z,100694.13
2022-10-18T19:07:28.090Z,100695.16
2022-10-18T19:09:56.111Z,100697.16
2022-10-18T19:12:24.194Z,100669.09
2022-10-18T19:14:52.264Z,100693.38
2022-10-18T19:17:21.766Z,100690.97
2022-10-18T19:19:52.013Z,100687.59
2022-10-18T19:22:19.965Z,100684.91
2022-10-18T19:24:48.005Z,100682.53
2022-10-18T19:27:15.989Z,100683.38
2022-10-18T19:29:44.118Z,100669.28
2022-10-18T19:32:13.418Z,100673.47
2022-10-18T19:34:41.525Z,100675.47
2022-10-18T19:37:10.962Z,100672.63
2022-10-18T19:39:38.929Z,100664.06
2022-10-18T19:42:08.915Z,100657.69
2022-10-18T19:44:37.460Z,100657.84
2022-10-18T19:47:05.557Z,100653.47
2022-10-18T19:49:33.639Z,100645.28
2022-10-18T19:52:01.595Z,100640.34
2022-10-18T19:54:31.148Z,100640.81
2022-10-18T19:56:59.114Z,100644.78
2022-10-18T19:59:27.127Z,100634.94
2022-10-18T20:01:55.155Z,100641.00
2022-10-18T20:04:23.127Z,100642.28
2022-10-18T20:06:51.122Z,100645.28
2022-10-18T20:09:21.390Z,100634.69
2022-10-18T20:11:50.760Z,100641.47
2022-10-18T20:14:18.906Z,100633.19
2022-10-18T20:16:46.939Z,100631.97
2022-10-18T20:19:14.937Z,100627.16
2022-10-18T20:21:42.908Z,100615.63
2022-10-18T20:24:12.064Z,100625.50
2022-10-18T20:26:40.691Z,100621.31
2022-10-18T20:29:10.186Z,100623.28
2022-10-18T20:31:39.225Z,100616.50
2022-10-18T20:34:08.187Z,100611.75
2022-10-18T20:36:36.150Z,100610.91
2022-10-18T20:39:04.693Z,100610.94
2022-10-18T20:41:33.820Z,100611.50
2022-10-18T20:44:02.421Z,100619.94
2022-10-18T20:46:32.908Z,100612.38
2022-10-18T20:49:00.896Z,100605.59
2022-10-18T20:51:28.984Z,100607.56
2022-10-18T20:53:56.996Z,100611.22
2022-10-18T20:56:26.745Z,100607.88
2022-10-18T20:58:56.514Z,100595.75
2022-10-18T21:01:25.648Z,100599.69
2022-10-18T21:03:55.944Z,100589.56
2022-10-18T21:06:24.643Z,100590.16
2022-10-18T21:08:53.988Z,100593.09
2022-10-18T21:11:21.965Z,100589.03
2022-10-18T21:13:51.941Z,100580.28
2022-10-18T21:16:19.940Z,100576.91
2022-10-18T21:18:47.963Z,100572.97
2022-10-18T21:21:18.154Z,100563.38
2022-10-18T21:23:46.219Z,100552.81
2022-10-18T21:26:15.208Z,100559.44
2022-10-18T21:28:43.268Z,100551.72
2022-10-18T21:31:13.450Z,100546.63
2022-10-18T21:33:41.512Z,100550.28
2022-10-18T21:36:09.639Z,100543.94
2022-10-18T21:38:39.175Z,100548.19
2022-10-18T21:41:10.913Z,100545.94
2022-10-18T21:43:40.621Z,100539.06
2022-10-18T21:46:08.765Z,100538.63
2022-10-18T21:48:36.748Z,100529.34
2022-10-18T21:51:05.043Z,100527.78
2022-10-18T21:53:33.047Z,100520.75
2022-10-18T21:56:07.491Z,100523.41
2022-10-18T21:58:35.854Z,100519.75
2022-10-18T22:01:03.986Z,100515.84
2022-10-18T22:03:31.961Z,100510.91
2022-10-18T22:06:01.382Z,100520.16
2022-10-18T22:08:29.441Z,100512.44
2022-10-18T22:10:58.036Z,100506.38
2022-10-18T22:13:27.679Z,100505.69
2022-10-18T22:15:55.800Z,100496.25
2022-10-18T22:18:23.769Z,100493.88
2022-10-18T22:20:55.493Z,100494.97
2022-10-18T22:23:23.495Z,100486.09
2022-10-18T22:25:51.535Z,100477.53
2022-10-18T22:28:19.594Z,100475.84
2022-10-18T22:30:49.126Z,100471.63
2022-10-18T22:33:17.181Z,100477.25
2022-10-18T22:35:47.062Z,100472.47
2022-10-18T22:38:15.108Z,100473.59
2022-10-18T22:40:43.075Z,100471.22
2022-10-18T22:43:11.049Z,100459.50
2022-10-18T22:45:39.933Z,100459.50
2022-10-18T22:48:09.395Z,100463.72
2022-10-18T22:50:37.365Z,100459.94
2022-10-18T22:53:05.384Z,100453.16
2022-10-18T22:55:33.413Z,100456.16
2022-10-18T22:58:01.419Z,100461.75
2022-10-18T23:00:29.458Z,100456.69
2022-10-18T23:02:57.433Z,100453.59
2022-10-18T23:05:26.826Z,100450.22
2022-10-18T23:07:54.815Z,100443.47
2022-10-18T23:10:22.949Z,100439.25
2022-10-18T23:12:50.932Z,100434.75
2022-10-18T23:15:18.906Z,100435.00
2022-10-18T23:17:46.992Z,100440.34
2022-10-18T23:20:14.995Z,100433.06
2022-10-18T23:22:44.372Z,100433.44
2022-10-18T23:25:12.343Z,100436.25
2022-10-18T23:27:40.359Z,100436.81
2022-10-18T23:30:09.372Z,100431.75
2022-10-18T23:32:38.080Z,100427.09
2022-10-18T23:35:06.646Z,100424.56
2022-10-18T23:37:34.962Z,100420.75
2022-10-18T23:40:04.894Z,100419.06
2022-10-18T23:42:32.878Z,100419.06
2022-10-18T23:45:00.913Z,100417.38
2022-10-18T23:47:28.973Z,100414.41
2022-10-18T23:49:58.922Z,100417.22
2022-10-18T23:52:26.889Z,100410.72
2022-10-18T23:54:54.866Z,100407.66
2022-10-18T23:57:24.238Z,100408.41
2022-10-18T23:59:52.194Z,100410.13
